createdAt,value
2022-12-27T00:00:09.930Z,3.1
2022-12-27T00:03:10.273Z,3.1
2022-12-27T00:06:09.888Z,3.1
2022-12-27T00:09:09.920Z,3.1
2022-12-27T00:12:09.878Z,3.1
2022-12-27T00:15:09.837Z,3.1
2022-12-27T00:18:09.854Z,3.1
2022-12-27T00:21:09.961Z,3.1
2022-12-27T00:24:09.978Z,3
2022-12-27T00:27:09.879Z,3
2022-12-27T00:30:09.896Z,2.9
2022-12-27T00:33:09.942Z,2.9
2022-12-27T00:36:09.934Z,2.9
2022-12-27T00:39:09.897Z,2.9
2022-12-27T00:42:09.928Z,2.7
2022-12-27T00:45:09.915Z,2.7
2022-12-27T00:48:09.843Z,2.7
2022-12-27T00:51:09.969Z,2.7
2022-12-27T00:54:09.831Z,2.7
2022-12-27T00:57:09.875Z,2.7
2022-12-27T01:00:19.529Z,2.6
2022-12-27T01:03:11.051Z,2.6
2022-12-27T01:06:09.914Z,2.6
2022-12-27T01:09:09.929Z,2.6
2022-12-27T01:12:09.966Z,2.6
2022-12-27T01:15:09.934Z,2.6
2022-12-27T01:18:09.923Z,2.6
2022-12-27T01:21:09.944Z,2.5
2022-12-27T01:24:09.866Z,2.5
2022-12-27T01:27:10.078Z,2.5
2022-12-27T01:30:10.056Z,2.5
2022-12-27T01:33:10.086Z,2.6
2022-12-27T01:36:09.910Z,2.7
2022-12-27T01:39:09.921Z,2.7
2022-12-27T01:42:10.046Z,2.9
2022-12-27T01:45:09.882Z,2.9
2022-12-27T01:48:09.940Z,3.1
2022-12-27T01:51:09.932Z,3.1
2022-12-27T01:54:09.948Z,3.1
2022-12-27T01:57:09.998Z,3.1
2022-12-27T02:00:09.958Z,3.1
2022-12-27T02:03:10.319Z,3.1
2022-12-27T02:06:09.968Z,2.9
2022-12-27T02:09:09.901Z,2.8
2022-12-27T02:12:09.870Z,2.7
2022-12-27T02:15:09.869Z,2.5
2022-12-27T02:18:09.897Z,2.5
2022-12-27T02:21:09.902Z,2.4
2022-12-27T02:24:11.448Z,2.4
2022-12-27T02:27:09.847Z,2.5
2022-12-27T02:30:09.891Z,2.4
2022-12-27T02:33:10.473Z,2.4
2022-12-27T02:36:09.860Z,2.4
2022-12-27T02:39:10.005Z,2.4
2022-12-27T02:42:09.848Z,2.4
2022-12-27T02:45:09.901Z,2.4
2022-12-27T02:48:09.884Z,2.4
2022-12-27T02:51:10.048Z,2.4
2022-12-27T02:54:09.974Z,2.4
2022-12-27T02:57:09.946Z,2.5
2022-12-27T03:00:10.025Z,2.6
2022-12-27T03:03:10.206Z,2.6
2022-12-27T03:06:09.867Z,2.6
2022-12-27T03:09:10.018Z,2.6
2022-12-27T03:12:10.217Z,2.6
2022-12-27T03:15:10.100Z,2.5
2022-12-27T03:18:10.033Z,2.6
2022-12-27T03:21:10.047Z,2.6
2022-12-27T03:24:10.195Z,2.6
2022-12-27T03:27:09.904Z,2.6
2022-12-27T03:30:09.875Z,2.5
2022-12-27T03:33:09.919Z,2.4
2022-12-27T03:36:09.869Z,2.4
2022-12-27T03:39:09.927Z,2.5
2022-12-27T03:42:09.859Z,2.5
2022-12-27T03:45:09.992Z,2.4
2022-12-27T03:48:09.843Z,2.4
2022-12-27T03:51:10.142Z,2.4
2022-12-27T03:54:09.945Z,2.4
2022-12-27T03:57:09.922Z,2.3
2022-12-27T04:00:10.911Z,2.3
2022-12-27T04:03:10.361Z,2.2
2022-12-27T04:06:09.933Z,2.1
2022-12-27T04:09:09.920Z,2.1
2022-12-27T04:12:09.896Z,2.1
2022-12-27T04:15:09.875Z,2.1
2022-12-27T04:18:09.904Z,2.1
2022-12-27T04:21:09.850Z,2.2
2022-12-27T04:24:09.869Z,2.1
2022-12-27T04:27:09.910Z,2.1
2022-12-27T04:30:10.203Z,2.2
2022-12-27T04:33:09.975Z,2.2
2022-12-27T04:36:15.608Z,2.2
2022-12-27T04:39:09.931Z,2.2
2022-12-27T04:42:09.982Z,2.2
2022-12-27T04:45:17.821Z,2.3
2022-12-27T04:48:09.841Z,2.2
2022-12-27T04:51:09.922Z,2.2
2022-12-27T04:54:09.858Z,2.2
2022-12-27T04:57:09.901Z,2.3
2022-12-27T05:00:10.050Z,2.2
2022-12-27T05:03:10.763Z,2.2
2022-12-27T05:06:09.908Z,2.2
2022-12-27T05:09:09.911Z,2.4
2022-12-27T05:12:09.869Z,2.5
2022-12-27T05:15:09.868Z,2.6
2022-12-27T05:18:09.845Z,2.6
2022-12-27T05:21:09.987Z,2.5
2022-12-27T05:24:14.899Z,2.8
2022-12-27T05:27:09.926Z,3
2022-12-27T05:30:09.872Z,3.2
2022-12-27T05:33:09.968Z,3.3
2022-12-27T05:36:09.862Z,3.4
2022-12-27T05:39:09.973Z,3.4
2022-12-27T05:51:10.615Z,3.8
2022-12-27T05:54:10.036Z,3.8
2022-12-27T05:57:10.069Z,3.9
2022-12-27T06:00:10.062Z,3.9
2022-12-27T06:03:11.156Z,3.9
2022-12-27T06:06:12.411Z,3.8
2022-12-27T06:09:10.058Z,3.9
2022-12-27T06:12:09.936Z,3.9
2022-12-27T06:15:10.031Z,4
2022-12-27T06:18:10.212Z,4.1
2022-12-27T06:21:09.964Z,4.1
2022-12-27T06:24:10.015Z,4.2
2022-12-27T06:27:10.114Z,4.4
2022-12-27T06:30:09.994Z,4.4
2022-12-27T06:33:10.009Z,4.4
2022-12-27T06:36:10.077Z,4.5
2022-12-27T06:39:09.967Z,4.5
2022-12-27T06:42:09.971Z,4.5
2022-12-27T06:45:10.147Z,4.6
2022-12-27T06:48:10.007Z,4.6
2022-12-27T06:51:10.097Z,4.6
2022-12-27T06:54:10.068Z,4.6
2022-12-27T06:57:10.104Z,4.7
2022-12-27T07:00:10.056Z,4.7
2022-12-27T07:03:10.349Z,4.6
2022-12-27T07:06:10.094Z,4.7
2022-12-27T07:09:10.011Z,4.7
2022-12-27T07:12:10.003Z,4.7
2022-12-27T07:15:10.121Z,4.8
2022-12-27T07:18:09.980Z,4.8
2022-12-27T07:21:10.015Z,4.8
2022-12-27T07:24:10.095Z,4.8
2022-12-27T07:27:10.120Z,4.8
2022-12-27T07:30:10.210Z,4.9
2022-12-27T07:33:10.157Z,4.9
2022-12-27T07:36:10.087Z,4.9
2022-12-27T07:39:10.043Z,4.9
2022-12-27T07:42:17.503Z,4.9
2022-12-27T07:45:10.170Z,4.9
2022-12-27T07:48:10.096Z,4.9
2022-12-27T07:51:10.183Z,4.9
2022-12-27T07:54:10.113Z,4.9
2022-12-27T07:57:10.181Z,5
2022-12-27T08:00:10.194Z,5
2022-12-27T08:03:10.427Z,5
2022-12-27T08:06:10.114Z,5
2022-12-27T08:09:10.160Z,5
2022-12-27T08:12:11.307Z,4.9
2022-12-27T08:15:10.281Z,4.9
2022-12-27T08:18:10.141Z,4.9
2022-12-27T08:21:10.137Z,4.9
2022-12-27T08:24:10.156Z,5
2022-12-27T08:27:10.153Z,5.1
2022-12-27T08:30:10.065Z,5.1
2022-12-27T08:33:10.043Z,5.1
2022-12-27T08:39:10.151Z,5
2022-12-27T08:42:10.037Z,5.1
2022-12-27T08:45:10.101Z,5.1
2022-12-27T08:48:10.636Z,5.1
2022-12-27T08:51:35.726Z,5.1
2022-12-27T08:54:10.075Z,5.2
2022-12-27T08:57:10.083Z,5.2
2022-12-27T09:00:10.234Z,5.2
2022-12-27T09:03:10.450Z,5.2
2022-12-27T09:06:10.107Z,5.1
2022-12-27T09:09:10.267Z,5.2
2022-12-27T09:12:17.928Z,5.2
2022-12-27T09:15:10.052Z,5.2
2022-12-27T09:18:10.054Z,5.4
2022-12-27T09:21:10.151Z,5.4
2022-12-27T09:24:10.082Z,5.3
2022-12-27T09:27:10.098Z,5.3
2022-12-27T09:30:10.315Z,5.3
2022-12-27T09:33:10.123Z,5.2
2022-12-27T09:36:10.076Z,5.1
2022-12-27T09:39:10.123Z,5.1
2022-12-27T09:45:10.209Z,5
2022-12-27T09:48:10.148Z,5
2022-12-27T09:51:10.083Z,5.2
2022-12-27T09:54:10.081Z,5.5
2022-12-27T09:57:29.481Z,5.6
2022-12-27T10:00:10.189Z,5.8
2022-12-27T10:03:10.296Z,6.1
2022-12-27T10:06:10.411Z,6.2
2022-12-27T10:09:10.050Z,6.2
2022-12-27T10:12:10.141Z,6.2
2022-12-27T10:15:10.037Z,6.1
2022-12-27T10:18:10.053Z,6.1
2022-12-27T10:21:10.165Z,6.1
2022-12-27T10:24:10.106Z,6.1
2022-12-27T10:27:10.029Z,6.1
2022-12-27T10:30:10.182Z,6
2022-12-27T10:33:10.119Z,6.2
2022-12-27T10:36:10.144Z,6.4
2022-12-27T10:39:10.177Z,6.4
2022-12-27T10:42:10.032Z,6.7
2022-12-27T10:45:10.324Z,6.8
2022-12-27T10:48:10.095Z,6.7
2022-12-27T10:51:10.161Z,6.6
2022-12-27T10:54:10.122Z,6.4
2022-12-27T10:57:10.118Z,6.1
2022-12-27T11:00:10.139Z,5.9
2022-12-27T11:03:10.611Z,5.8
2022-12-27T11:06:10.128Z,5.8
2022-12-27T11:09:10.501Z,5.9
2022-12-27T11:12:10.059Z,5.9
2022-12-27T11:15:10.055Z,5.8
2022-12-27T11:18:10.241Z,5.9
2022-12-27T11:21:21.336Z,6.3
2022-12-27T11:24:10.044Z,6.9
2022-12-27T11:27:10.138Z,7.3
2022-12-27T11:30:10.159Z,7.4
2022-12-27T11:33:10.115Z,7.6
2022-12-27T11:36:10.128Z,7.7
2022-12-27T11:39:10.144Z,7.9
2022-12-27T11:42:10.047Z,7.6
2022-12-27T11:45:10.137Z,7.1
2022-12-27T11:48:10.066Z,6.7
2022-12-27T11:51:09.937Z,6.7
2022-12-27T11:54:10.135Z,6.7
2022-12-27T11:57:10.093Z,6.7
2022-12-27T12:00:10.164Z,6.9
2022-12-27T12:03:10.809Z,6.9
2022-12-27T12:06:10.186Z,6.8
2022-12-27T12:09:10.153Z,6.7
2022-12-27T12:12:10.246Z,6.6
2022-12-27T12:15:10.087Z,6.6
2022-12-27T12:18:10.249Z,6.6
2022-12-27T12:21:10.200Z,6.4
2022-12-27T12:24:10.269Z,6.2
2022-12-27T12:27:10.007Z,6.2
2022-12-27T12:30:10.258Z,6.1
2022-12-27T12:33:10.664Z,6.1
2022-12-27T12:36:10.165Z,6.1
2022-12-27T12:39:10.060Z,6.2
2022-12-27T12:42:10.179Z,6.2
2022-12-27T12:45:10.271Z,6.1
2022-12-27T12:48:10.263Z,5.9
2022-12-27T12:51:10.047Z,5.9
2022-12-27T12:54:10.069Z,5.9
2022-12-27T13:00:10.521Z,5.9
2022-12-27T13:03:11.238Z,5.9
2022-12-27T13:06:10.205Z,5.9
2022-12-27T13:09:10.239Z,5.8
2022-12-27T13:12:10.329Z,5.7
2022-12-27T13:15:10.333Z,5.6
2022-12-27T13:18:10.148Z,5.6
2022-12-27T13:21:10.290Z,5.5
2022-12-27T13:24:10.152Z,5.5
2022-12-27T13:27:10.237Z,5.6
2022-12-27T13:30:16.594Z,5.6
2022-12-27T13:33:10.153Z,5.7
2022-12-27T13:36:10.204Z,5.7
2022-12-27T13:39:10.194Z,5.7
2022-12-27T13:42:10.239Z,5.7
2022-12-27T13:45:10.348Z,5.8
2022-12-27T13:48:10.219Z,5.8
2022-12-27T13:51:10.183Z,5.9
2022-12-27T13:54:10.249Z,5.9
2022-12-27T13:57:10.239Z,5.9
2022-12-27T14:03:10.579Z,5.7
2022-12-27T14:06:10.115Z,5.7
2022-12-27T14:09:10.309Z,5.6
2022-12-27T14:12:10.206Z,5.5
2022-12-27T14:18:10.255Z,5.4
2022-12-27T14:21:10.243Z,5.4
2022-12-27T14:24:10.179Z,5.3
2022-12-27T14:27:10.296Z,5.2
2022-12-27T14:30:10.529Z,5.1
2022-12-27T14:33:10.276Z,5.1
2022-12-27T14:36:10.233Z,5.1
2022-12-27T14:39:10.150Z,5
2022-12-27T14:42:10.291Z,4.9
2022-12-27T14:45:10.151Z,4.7
2022-12-27T14:48:10.149Z,4.6
2022-12-27T14:52:02.604Z,4.6
2022-12-27T14:54:10.157Z,4.6
2022-12-27T14:57:10.179Z,4.4
2022-12-27T15:00:10.376Z,4.2
2022-12-27T15:03:10.885Z,4.2
2022-12-27T15:06:10.566Z,4.1
2022-12-27T15:09:16.542Z,4
2022-12-27T15:12:10.260Z,3.9
2022-12-27T15:15:10.413Z,3.7
2022-12-27T15:18:10.176Z,3.7
2022-12-27T15:21:10.044Z,3.6
2022-12-27T15:24:10.218Z,3.5
2022-12-27T15:27:11.975Z,3.4
2022-12-27T15:30:10.305Z,3.2
2022-12-27T15:33:10.092Z,3.1
2022-12-27T15:36:10.109Z,3
2022-12-27T15:39:10.080Z,2.9
2022-12-27T15:42:10.076Z,2.9
2022-12-27T15:45:10.205Z,2.9
2022-12-27T15:48:10.064Z,3.1
2022-12-27T15:51:10.127Z,3
2022-12-27T15:54:10.129Z,2.9
2022-12-27T16:00:10.336Z,2.9
2022-12-27T16:03:11.356Z,2.9
2022-12-27T16:06:10.042Z,2.9
2022-12-27T16:09:09.965Z,2.9
2022-12-27T16:12:10.079Z,2.9
2022-12-27T16:15:09.961Z,2.8
2022-12-27T16:18:09.993Z,2.8
2022-12-27T16:21:09.931Z,2.9
2022-12-27T16:24:10.040Z,2.9
2022-12-27T16:27:10.081Z,2.9
2022-12-27T16:30:10.067Z,2.9
2022-12-27T16:33:10.026Z,2.9
2022-12-27T16:36:10.231Z,2.9
2022-12-27T16:39:09.982Z,3.1
2022-12-27T16:42:10.072Z,3.3
2022-12-27T16:45:09.988Z,3.4
2022-12-27T16:48:10.052Z,3.5
2022-12-27T16:51:10.021Z,3.7
2022-12-27T16:54:09.981Z,3.7
2022-12-27T16:57:09.937Z,3.7
2022-12-27T17:00:10.096Z,3.7
2022-12-27T17:03:10.196Z,3.7
2022-12-27T17:09:10.321Z,3.6
2022-12-27T17:12:10.095Z,3.6
2022-12-27T17:30:11.697Z,3.8
2022-12-27T17:33:11.213Z,3.9
2022-12-27T17:36:10.664Z,3.9
2022-12-27T17:39:11.624Z,4
2022-12-27T17:42:12.072Z,4.1
2022-12-27T17:45:10.350Z,4.1
2022-12-27T17:48:11.208Z,4.1
2022-12-27T17:51:11.963Z,4.1
2022-12-27T17:54:09.762Z,4.1
2022-12-27T17:57:09.622Z,4.2
2022-12-27T18:00:09.807Z,4.3
2022-12-27T18:03:10.148Z,4.3
2022-12-27T18:06:09.653Z,4.4
2022-12-27T18:09:09.657Z,4.4
2022-12-27T18:12:09.698Z,4.4
2022-12-27T18:15:09.691Z,4.5
2022-12-27T18:18:09.900Z,4.4
2022-12-27T18:21:09.852Z,4.4
2022-12-27T18:24:09.736Z,4.6
2022-12-27T18:27:09.677Z,4.6
2022-12-27T18:30:10.521Z,4.6
2022-12-27T18:33:09.724Z,4.6
2022-12-27T18:36:09.754Z,4.6
2022-12-27T18:39:09.695Z,4.6
2022-12-27T18:42:09.667Z,4.6
2022-12-27T18:45:09.722Z,4.6
2022-12-27T18:48:09.708Z,4.7
2022-12-27T18:51:09.717Z,4.8
2022-12-27T18:54:09.679Z,4.8
2022-12-27T18:57:09.675Z,4.8
2022-12-27T19:00:09.791Z,4.8
2022-12-27T19:03:09.939Z,4.8
2022-12-27T19:06:09.734Z,4.9
2022-12-27T19:09:09.649Z,4.9
2022-12-27T19:12:09.738Z,4.9
2022-12-27T19:15:09.738Z,4.9
2022-12-27T19:18:09.663Z,4.9
2022-12-27T19:21:09.638Z,4.9
2022-12-27T19:24:09.648Z,5
2022-12-27T19:27:09.642Z,4.9
2022-12-27T19:30:09.723Z,5.1
2022-12-27T19:33:09.677Z,5.2
2022-12-27T19:36:10.027Z,5.3
2022-12-27T19:39:09.748Z,5.4
2022-12-27T19:42:10.667Z,5.5
2022-12-27T19:45:09.627Z,5.5
2022-12-27T19:48:09.664Z,5.6
2022-12-27T19:51:09.691Z,5.6
2022-12-27T19:54:09.698Z,5.6
2022-12-27T19:57:09.671Z,5.6
2022-12-27T20:00:21.149Z,5.7
2022-12-27T20:03:10.098Z,5.7
2022-12-27T20:06:34.965Z,5.7
2022-12-27T20:09:09.665Z,5.7
2022-12-27T20:12:09.746Z,5.7
2022-12-27T20:15:09.761Z,5.6
2022-12-27T20:18:09.686Z,5.6
2022-12-27T20:21:09.710Z,5.7
2022-12-27T20:24:09.684Z,5.6
2022-12-27T20:27:09.721Z,5.7
2022-12-27T20:30:09.808Z,5.7
2022-12-27T20:33:09.719Z,5.7
2022-12-27T20:36:09.730Z,5.7
2022-12-27T20:39:09.927Z,5.7
2022-12-27T20:42:09.633Z,5.7
2022-12-27T20:45:09.632Z,5.7
2022-12-27T20:48:09.723Z,5.6
2022-12-27T20:51:09.668Z,5.6
2022-12-27T20:54:09.758Z,5.6
2022-12-27T20:57:09.668Z,5.6
2022-12-27T21:00:09.702Z,5.6
2022-12-27T21:03:10.544Z,5.6
2022-12-27T21:06:09.662Z,5.6
2022-12-27T21:09:09.794Z,5.6
2022-12-27T21:12:09.591Z,5.6
2022-12-27T21:15:09.754Z,5.6
2022-12-27T21:18:09.695Z,5.6
2022-12-27T21:21:09.695Z,5.6
2022-12-27T21:24:09.697Z,5.6
2022-12-27T21:27:09.720Z,5.6
2022-12-27T21:30:10.072Z,5.5
2022-12-27T21:33:09.635Z,5.5
2022-12-27T21:36:09.661Z,5.4
2022-12-27T21:39:09.755Z,5.4
2022-12-27T21:42:09.737Z,5.4
2022-12-27T21:45:09.812Z,5.3
2022-12-27T21:48:09.616Z,5.3
2022-12-27T21:51:09.759Z,5.3
2022-12-27T21:54:09.790Z,5.2
2022-12-27T21:57:09.635Z,5.2
2022-12-27T22:00:09.744Z,5.1
2022-12-27T22:03:11.562Z,5.1
2022-12-27T22:06:09.632Z,5.1
2022-12-27T22:09:09.799Z,5
2022-12-27T22:12:09.641Z,5
2022-12-27T22:15:09.642Z,5
2022-12-27T22:18:09.675Z,5
2022-12-27T22:21:09.764Z,4.9
2022-12-27T22:24:09.688Z,4.9
2022-12-27T22:27:10.243Z,4.8
2022-12-27T22:30:09.686Z,4.8
2022-12-27T22:33:09.711Z,4.9
2022-12-27T22:36:09.658Z,4.8
2022-12-27T22:39:10.959Z,4.8
2022-12-27T22:42:09.921Z,4.7
2022-12-27T22:45:09.616Z,4.7
2022-12-27T22:48:09.689Z,4.6
2022-12-27T22:51:09.661Z,4.6
2022-12-27T22:54:09.715Z,4.6
2022-12-27T22:57:09.667Z,4.6
2022-12-27T23:00:11.391Z,4.4
2022-12-27T23:03:09.638Z,4.3
2022-12-27T23:06:09.839Z,4.2
2022-12-27T23:09:09.788Z,4.2
2022-12-27T23:12:09.704Z,4.1
2022-12-27T23:15:09.702Z,4.1
2022-12-27T23:18:09.703Z,4.1
2022-12-27T23:21:33.592Z,4
2022-12-27T23:24:09.678Z,3.9
2022-12-27T23:27:10.284Z,3.9
2022-12-27T23:30:09.833Z,3.9
2022-12-27T23:33:09.665Z,3.8
2022-12-27T23:36:09.734Z,3.8
2022-12-27T23:39:09.642Z,3.8
2022-12-27T23:42:09.661Z,3.9
2022-12-27T23:45:09.639Z,3.8
2022-12-27T23:48:09.698Z,3.8
2022-12-27T23:51:09.659Z,3.9
2022-12-27T23:54:09.633Z,3.9
2022-12-27T23:57:31.875Z,3.9
